sensor_id;sensor_type;location;lat;lon;timestamp;temperature;humidity
7814;DHT22;3952;48.364;16.022;2023-08-20T00:01:25;20.90;99.90
7814;DHT22;3952;48.364;16.022;2023-08-20T00:03:53;20.90;99.90
7814;DHT22;3952;48.364;16.022;2023-08-20T00:06:23;20.90;99.90
7814;DHT22;3952;48.364;16.022;2023-08-20T00:08:50;20.80;99.90
7814;DHT22;3952;48.364;16.022;2023-08-20T00:11:23;20.90;99.90
7814;DHT22;3952;48.364;16.022;2023-08-20T00:13:51;20.80;99.90
7814;DHT22;3952;48.364;16.022;2023-08-20T00:16:18;20.80;99.90
7814;DHT22;3952;48.364;16.022;2023-08-20T00:18:46;20.80;99.90
7814;DHT22;3952;48.364;16.022;2023-08-20T00:21:14;20.80;99.90
7814;DHT22;3952;48.364;16.022;2023-08-20T00:23:44;20.60;99.90
7814;DHT22;3952;48.364;16.022;2023-08-20T00:26:11;20.60;99.90
7814;DHT22;3952;48.364;16.022;2023-08-20T00:28:39;20.50;99.90
7814;DHT22;3952;48.364;16.022;2023-08-20T00:31:06;20.50;99.90
7814;DHT22;3952;48.364;16.022;2023-08-20T00:33:33;20.50;99.90
7814;DHT22;3952;48.364;16.022;2023-08-20T00:36:00;20.50;99.90
7814;DHT22;3952;48.364;16.022;2023-08-20T00:38:28;20.50;99.90
7814;DHT22;3952;48.364;16.022;2023-08-20T00:40:57;20.40;99.90
7814;DHT22;3952;48.364;16.022;2023-08-20T00:43:24;20.40;99.90
7814;DHT22;3952;48.364;16.022;2023-08-20T00:45:52;20.30;99.90
7814;DHT22;3952;48.364;16.022;2023-08-20T00:48:19;20.30;99.90
7814;DHT22;3952;48.364;16.022;2023-08-20T00:50:47;20.30;99.90
7814;DHT22;3952;48.364;16.022;2023-08-20T00:53:15;20.20;99.90
7814;DHT22;3952;48.364;16.022;2023-08-20T00:55:42;20.20;99.90
7814;DHT22;3952;48.364;16.022;2023-08-20T00:58:12;20.10;99.90
7814;DHT22;3952;48.364;16.022;2023-08-20T01:00:40;20.10;99.90
7814;DHT22;3952;48.364;16.022;2023-08-20T01:03:08;20.10;99.90
7814;DHT22;3952;48.364;16.022;2023-08-20T01:05:42;20.10;99.90
7814;DHT22;3952;48.364;16.022;2023-08-20T01:08:21;20.10;99.90
7814;DHT22;3952;48.364;16.022;2023-08-20T01:10:56;20.00;99.90
7814;DHT22;3952;48.364;16.022;2023-08-20T01:13:26;20.00;99.90
7814;DHT22;3952;48.364;16.022;2023-08-20T01:15:53;20.00;99.90
7814;DHT22;3952;48.364;16.022;2023-08-20T01:18:20;19.90;99.90
7814;DHT22;3952;48.364;16.022;2023-08-20T01:20:53;20.00;99.90
7814;DHT22;3952;48.364;16.022;2023-08-20T01:23:48;20.00;99.90
7814;DHT22;3952;48.364;16.022;2023-08-20T01:26:53;20.00;99.90
7814;DHT22;3952;48.364;16.022;2023-08-20T01:29:25;20.00;99.90
7814;DHT22;3952;48.364;16.022;2023-08-20T01:31:53;20.10;99.90
7814;DHT22;3952;48.364;16.022;2023-08-20T01:34:21;20.10;99.90
7814;DHT22;3952;48.364;16.022;2023-08-20T01:36:49;20.10;99.90
7814;DHT22;3952;48.364;16.022;2023-08-20T01:39:16;20.10;99.90
7814;DHT22;3952;48.364;16.022;2023-08-20T01:41:44;20.10;99.90
7814;DHT22;3952;48.364;16.022;2023-08-20T01:44:11;20.10;99.90
7814;DHT22;3952;48.364;16.022;2023-08-20T01:46:40;20.10;99.90
7814;DHT22;3952;48.364;16.022;2023-08-20T01:49:07;20.00;99.90
7814;DHT22;3952;48.364;16.022;2023-08-20T01:51:34;20.10;99.90
7814;DHT22;3952;48.364;16.022;2023-08-20T01:54:02;20.10;99.90
7814;DHT22;3952;48.364;16.022;2023-08-20T01:56:29;20.10;99.90
7814;DHT22;3952;48.364;16.022;2023-08-20T01:58:56;20.10;99.90
7814;DHT22;3952;48.364;16.022;2023-08-20T02:01:24;20.10;99.90
7814;DHT22;3952;48.364;16.022;2023-08-20T02:03:53;20.00;99.90
7814;DHT22;3952;48.364;16.022;2023-08-20T02:06:20;20.00;99.90
7814;DHT22;3952;48.364;16.022;2023-08-20T02:08:47;20.00;99.90
7814;DHT22;3952;48.364;16.022;2023-08-20T02:11:14;20.00;99.90
7814;DHT22;3952;48.364;16.022;2023-08-20T02:13:41;20.00;99.90
7814;DHT22;3952;48.364;16.022;2023-08-20T02:16:09;20.00;99.90
7814;DHT22;3952;48.364;16.022;2023-08-20T02:18:36;19.90;99.90
7814;DHT22;3952;48.364;16.022;2023-08-20T02:21:04;19.90;99.90
7814;DHT22;3952;48.364;16.022;2023-08-20T02:23:32;19.90;99.90
7814;DHT22;3952;48.364;16.022;2023-08-20T02:25:59;19.80;99.90
7814;DHT22;3952;48.364;16.022;2023-08-20T02:28:26;19.70;99.90
7814;DHT22;3952;48.364;16.022;2023-08-20T02:30:53;19.70;99.90
7814;DHT22;3952;48.364;16.022;2023-08-20T02:33:20;19.70;99.90
7814;DHT22;3952;48.364;16.022;2023-08-20T02:35:48;19.60;99.90
7814;DHT22;3952;48.364;16.022;2023-08-20T02:38:16;19.60;99.90
7814;DHT22;3952;48.364;16.022;2023-08-20T02:40:43;19.60;99.90
7814;DHT22;3952;48.364;16.022;2023-08-20T02:43:11;19.50;99.90
7814;DHT22;3952;48.364;16.022;2023-08-20T02:45:41;19.50;99.90
7814;DHT22;3952;48.364;16.022;2023-08-20T02:48:09;19.60;99.90
7814;DHT22;3952;48.364;16.022;2023-08-20T02:50:36;19.50;99.90
7814;DHT22;3952;48.364;16.022;2023-08-20T02:53:03;19.50;99.90
7814;DHT22;3952;48.364;16.022;2023-08-20T02:55:32;19.50;99.90
7814;DHT22;3952;48.364;16.022;2023-08-20T02:58:01;19.50;99.90
7814;DHT22;3952;48.364;16.022;2023-08-20T03:00:29;19.40;99.90
7814;DHT22;3952;48.364;16.022;2023-08-20T03:02:57;19.30;99.90
7814;DHT22;3952;48.364;16.022;2023-08-20T03:05:24;19.20;99.90
7814;DHT22;3952;48.364;16.022;2023-08-20T03:07:51;19.20;99.90
7814;DHT22;3952;48.364;16.022;2023-08-20T03:10:19;19.20;99.90
7814;DHT22;3952;48.364;16.022;2023-08-20T03:12:47;19.20;99.90
7814;DHT22;3952;48.364;16.022;2023-08-20T03:15:14;19.30;99.90
7814;DHT22;3952;48.364;16.022;2023-08-20T03:17:42;19.30;99.90
7814;DHT22;3952;48.364;16.022;2023-08-20T03:20:10;19.30;99.90
7814;DHT22;3952;48.364;16.022;2023-08-20T03:22:37;19.20;99.90
7814;DHT22;3952;48.364;16.022;2023-08-20T03:25:05;19.20;99.90
7814;DHT22;3952;48.364;16.022;2023-08-20T03:27:33;19.20;99.90
7814;DHT22;3952;48.364;16.022;2023-08-20T03:30:02;19.10;99.90
7814;DHT22;3952;48.364;16.022;2023-08-20T03:32:30;19.10;99.90
7814;DHT22;3952;48.364;16.022;2023-08-20T03:34:57;19.10;99.90
7814;DHT22;3952;48.364;16.022;2023-08-20T03:37:25;19.10;99.90
7814;DHT22;3952;48.364;16.022;2023-08-20T03:39:52;19.00;99.90
7814;DHT22;3952;48.364;16.022;2023-08-20T03:42:19;19.00;99.90
7814;DHT22;3952;48.364;16.022;2023-08-20T03:44:47;19.00;99.90
7814;DHT22;3952;48.364;16.022;2023-08-20T03:47:15;19.00;99.90
7814;DHT22;3952;48.364;16.022;2023-08-20T03:49:46;19.00;99.90
7814;DHT22;3952;48.364;16.022;2023-08-20T03:52:13;19.00;99.90
7814;DHT22;3952;48.364;16.022;2023-08-20T03:54:41;19.00;99.90
7814;DHT22;3952;48.364;16.022;2023-08-20T03:57:08;19.00;99.90
7814;DHT22;3952;48.364;16.022;2023-08-20T03:59:35;19.00;99.90
7814;DHT22;3952;48.364;16.022;2023-08-20T04:02:02;19.00;99.90
7814;DHT22;3952;48.364;16.022;2023-08-20T04:04:31;19.00;99.90
7814;DHT22;3952;48.364;16.022;2023-08-20T04:06:58;19.00;99.90
7814;DHT22;3952;48.364;16.022;2023-08-20T04:09:25;18.90;99.90
7814;DHT22;3952;48.364;16.022;2023-08-20T04:11:53;18.90;99.90
7814;DHT22;3952;48.364;16.022;2023-08-20T04:14:20;18.90;99.90
7814;DHT22;3952;48.364;16.022;2023-08-20T04:16:47;18.90;99.90
7814;DHT22;3952;48.364;16.022;2023-08-20T04:19:14;18.90;99.90
7814;DHT22;3952;48.364;16.022;2023-08-20T04:21:43;18.90;99.90
7814;DHT22;3952;48.364;16.022;2023-08-20T04:24:10;18.90;99.90
7814;DHT22;3952;48.364;16.022;2023-08-20T04:26:37;18.90;99.90
7814;DHT22;3952;48.364;16.022;2023-08-20T04:29:04;18.90;99.90
7814;DHT22;3952;48.364;16.022;2023-08-20T04:31:32;18.90;99.90
7814;DHT22;3952;48.364;16.022;2023-08-20T04:33:59;18.90;99.90
7814;DHT22;3952;48.364;16.022;2023-08-20T04:36:26;18.90;99.90
7814;DHT22;3952;48.364;16.022;2023-08-20T04:38:55;18.90;99.90
7814;DHT22;3952;48.364;16.022;2023-08-20T04:41:22;19.00;99.90
7814;DHT22;3952;48.364;16.022;2023-08-20T04:43:49;18.60;99.90
7814;DHT22;3952;48.364;16.022;2023-08-20T04:46:16;19.00;99.90
7814;DHT22;3952;48.364;16.022;2023-08-20T04:48:44;19.00;99.90
7814;DHT22;3952;48.364;16.022;2023-08-20T04:51:11;19.00;99.90
7814;DHT22;3952;48.364;16.022;2023-08-20T04:53:38;19.10;99.90
7814;DHT22;3952;48.364;16.022;2023-08-20T04:56:06;19.10;99.90
7814;DHT22;3952;48.364;16.022;2023-08-20T04:58:34;19.10;99.90
7814;DHT22;3952;48.364;16.022;2023-08-20T05:01:01;19.20;99.90
7814;DHT22;3952;48.364;16.022;2023-08-20T05:03:28;19.20;99.90
7814;DHT22;3952;48.364;16.022;2023-08-20T05:05:55;19.20;99.90
7814;DHT22;3952;48.364;16.022;2023-08-20T05:08:23;18.80;99.90
7814;DHT22;3952;48.364;16.022;2023-08-20T05:10:50;19.30;99.90
7814;DHT22;3952;48.364;16.022;2023-08-20T05:13:18;19.40;99.90
7814;DHT22;3952;48.364;16.022;2023-08-20T05:15:46;19.40;99.90
7814;DHT22;3952;48.364;16.022;2023-08-20T05:18:13;19.50;99.90
7814;DHT22;3952;48.364;16.022;2023-08-20T05:20:41;19.50;99.90
7814;DHT22;3952;48.364;16.022;2023-08-20T05:23:08;19.60;99.90
7814;DHT22;3952;48.364;16.022;2023-08-20T05:25:35;19.60;99.90
7814;DHT22;3952;48.364;16.022;2023-08-20T05:28:03;19.70;99.90
7814;DHT22;3952;48.364;16.022;2023-08-20T05:30:31;19.70;99.90
7814;DHT22;3952;48.364;16.022;2023-08-20T05:32:58;19.80;99.90
7814;DHT22;3952;48.364;16.022;2023-08-20T05:35:26;19.80;99.90
7814;DHT22;3952;48.364;16.022;2023-08-20T05:37:54;19.80;99.90
7814;DHT22;3952;48.364;16.022;2023-08-20T05:40:21;19.90;99.90
7814;DHT22;3952;48.364;16.022;2023-08-20T05:42:48;19.90;99.90
7814;DHT22;3952;48.364;16.022;2023-08-20T05:45:15;20.00;99.90
7814;DHT22;3952;48.364;16.022;2023-08-20T05:47:44;20.00;99.90
7814;DHT22;3952;48.364;16.022;2023-08-20T05:50:11;20.10;99.90
7814;DHT22;3952;48.364;16.022;2023-08-20T05:52:38;20.20;99.90
7814;DHT22;3952;48.364;16.022;2023-08-20T05:55:06;20.20;99.90
7814;DHT22;3952;48.364;16.022;2023-08-20T05:57:33;20.30;99.90
7814;DHT22;3952;48.364;16.022;2023-08-20T06:00:03;20.30;99.90
7814;DHT22;3952;48.364;16.022;2023-08-20T06:02:31;20.40;99.90
7814;DHT22;3952;48.364;16.022;2023-08-20T06:04:59;20.50;99.90
7814;DHT22;3952;48.364;16.022;2023-08-20T06:07:26;20.50;99.90
7814;DHT22;3952;48.364;16.022;2023-08-20T06:09:54;20.60;99.90
7814;DHT22;3952;48.364;16.022;2023-08-20T06:12:22;20.70;99.90
7814;DHT22;3952;48.364;16.022;2023-08-20T06:14:50;20.70;99.90
7814;DHT22;3952;48.364;16.022;2023-08-20T06:17:17;20.80;99.90
7814;DHT22;3952;48.364;16.022;2023-08-20T06:19:44;20.90;99.90
7814;DHT22;3952;48.364;16.022;2023-08-20T06:22:13;21.00;99.90
7814;DHT22;3952;48.364;16.022;2023-08-20T06:24:40;21.10;99.90
7814;DHT22;3952;48.364;16.022;2023-08-20T06:27:07;21.20;99.90
7814;DHT22;3952;48.364;16.022;2023-08-20T06:29:34;21.30;99.90
7814;DHT22;3952;48.364;16.022;2023-08-20T06:32:03;21.40;99.90
7814;DHT22;3952;48.364;16.022;2023-08-20T06:34:30;21.50;99.90
7814;DHT22;3952;48.364;16.022;2023-08-20T06:36:57;21.60;99.90
7814;DHT22;3952;48.364;16.022;2023-08-20T06:39:26;21.70;99.90
7814;DHT22;3952;48.364;16.022;2023-08-20T06:41:53;21.90;99.90
7814;DHT22;3952;48.364;16.022;2023-08-20T06:44:20;22.00;99.90
7814;DHT22;3952;48.364;16.022;2023-08-20T06:46:47;22.10;99.90
7814;DHT22;3952;48.364;16.022;2023-08-20T06:49:15;22.20;99.90
7814;DHT22;3952;48.364;16.022;2023-08-20T06:51:42;22.40;99.90
7814;DHT22;3952;48.364;16.022;2023-08-20T06:54:09;22.50;99.90
7814;DHT22;3952;48.364;16.022;2023-08-20T06:56:38;22.60;99.90
7814;DHT22;3952;48.364;16.022;2023-08-20T06:59:05;22.80;99.90
7814;DHT22;3952;48.364;16.022;2023-08-20T07:01:32;22.90;99.90
7814;DHT22;3952;48.364;16.022;2023-08-20T07:03:59;23.10;99.90
7814;DHT22;3952;48.364;16.022;2023-08-20T07:06:26;23.20;99.90
7814;DHT22;3952;48.364;16.022;2023-08-20T07:08:53;23.30;99.90
7814;DHT22;3952;48.364;16.022;2023-08-20T07:11:21;23.50;99.90
7814;DHT22;3952;48.364;16.022;2023-08-20T07:13:50;23.60;99.90
7814;DHT22;3952;48.364;16.022;2023-08-20T07:16:17;23.80;99.90
7814;DHT22;3952;48.364;16.022;2023-08-20T07:18:44;23.90;99.90
7814;DHT22;3952;48.364;16.022;2023-08-20T07:21:11;24.10;99.90
7814;DHT22;3952;48.364;16.022;2023-08-20T07:23:38;24.20;99.90
7814;DHT22;3952;48.364;16.022;2023-08-20T07:26:07;24.40;99.90
7814;DHT22;3952;48.364;16.022;2023-08-20T07:28:34;24.50;99.90
7814;DHT22;3952;48.364;16.022;2023-08-20T07:31:21;24.70;99.90
7814;DHT22;3952;48.364;16.022;2023-08-20T07:33:48;24.80;99.90
7814;DHT22;3952;48.364;16.022;2023-08-20T07:36:16;24.90;99.90
7814;DHT22;3952;48.364;16.022;2023-08-20T07:38:44;25.10;99.90
7814;DHT22;3952;48.364;16.022;2023-08-20T07:41:11;25.20;99.90
7814;DHT22;3952;48.364;16.022;2023-08-20T07:43:39;25.40;99.90
7814;DHT22;3952;48.364;16.022;2023-08-20T07:46:07;25.50;99.90
7814;DHT22;3952;48.364;16.022;2023-08-20T07:48:36;25.60;99.90
7814;DHT22;3952;48.364;16.022;2023-08-20T07:51:03;25.80;99.90
7814;DHT22;3952;48.364;16.022;2023-08-20T07:53:30;25.90;99.90
7814;DHT22;3952;48.364;16.022;2023-08-20T07:55:57;26.10;99.90
7814;DHT22;3952;48.364;16.022;2023-08-20T07:58:25;26.20;99.90
7814;DHT22;3952;48.364;16.022;2023-08-20T08:00:52;26.30;99.90
7814;DHT22;3952;48.364;16.022;2023-08-20T08:03:19;26.40;99.90
7814;DHT22;3952;48.364;16.022;2023-08-20T08:05:48;26.60;99.90
7814;DHT22;3952;48.364;16.022;2023-08-20T08:08:15;26.60;99.90
7814;DHT22;3952;48.364;16.022;2023-08-20T08:10:43;26.70;99.90
7814;DHT22;3952;48.364;16.022;2023-08-20T08:13:11;26.80;99.90
7814;DHT22;3952;48.364;16.022;2023-08-20T08:15:38;26.90;99.90
7814;DHT22;3952;48.364;16.022;2023-08-20T08:18:06;27.00;99.90
7814;DHT22;3952;48.364;16.022;2023-08-20T08:20:34;27.10;99.90
7814;DHT22;3952;48.364;16.022;2023-08-20T08:23:03;27.30;99.90
7814;DHT22;3952;48.364;16.022;2023-08-20T08:25:30;27.40;99.90
7814;DHT22;3952;48.364;16.022;2023-08-20T08:27:57;27.50;99.90
7814;DHT22;3952;48.364;16.022;2023-08-20T08:30:25;27.60;99.90
7814;DHT22;3952;48.364;16.022;2023-08-20T08:32:52;27.70;99.90
7814;DHT22;3952;48.364;16.022;2023-08-20T08:35:20;27.80;99.90
7814;DHT22;3952;48.364;16.022;2023-08-20T08:37:47;28.00;99.90
7814;DHT22;3952;48.364;16.022;2023-08-20T08:40:16;28.10;99.90
7814;DHT22;3952;48.364;16.022;2023-08-20T08:42:47;28.20;99.90
7814;DHT22;3952;48.364;16.022;2023-08-20T08:45:16;28.40;99.90
7814;DHT22;3952;48.364;16.022;2023-08-20T08:47:45;28.50;99.90
7814;DHT22;3952;48.364;16.022;2023-08-20T08:50:12;28.60;99.90
7814;DHT22;3952;48.364;16.022;2023-08-20T08:52:40;28.70;99.90
7814;DHT22;3952;48.364;16.022;2023-08-20T08:55:08;28.80;99.90
7814;DHT22;3952;48.364;16.022;2023-08-20T08:57:37;28.90;99.90
7814;DHT22;3952;48.364;16.022;2023-08-20T09:00:06;29.00;99.90
7814;DHT22;3952;48.364;16.022;2023-08-20T09:02:33;29.10;99.90
7814;DHT22;3952;48.364;16.022;2023-08-20T09:05:00;29.30;99.90
7814;DHT22;3952;48.364;16.022;2023-08-20T09:07:27;29.50;99.90
7814;DHT22;3952;48.364;16.022;2023-08-20T09:09:58;29.60;99.90
7814;DHT22;3952;48.364;16.022;2023-08-20T09:12:26;29.70;99.90
7814;DHT22;3952;48.364;16.022;2023-08-20T09:14:56;29.70;99.90
7814;DHT22;3952;48.364;16.022;2023-08-20T09:17:26;29.80;99.90
7814;DHT22;3952;48.364;16.022;2023-08-20T09:19:55;29.90;99.90
7814;DHT22;3952;48.364;16.022;2023-08-20T09:22:23;30.00;99.90
7814;DHT22;3952;48.364;16.022;2023-08-20T09:24:54;30.10;99.90
7814;DHT22;3952;48.364;16.022;2023-08-20T09:27:22;30.20;99.90
7814;DHT22;3952;48.364;16.022;2023-08-20T09:29:51;30.30;99.90
7814;DHT22;3952;48.364;16.022;2023-08-20T09:32:22;30.40;99.90
7814;DHT22;3952;48.364;16.022;2023-08-20T09:34:50;30.50;99.90
7814;DHT22;3952;48.364;16.022;2023-08-20T09:37:20;30.60;99.90
7814;DHT22;3952;48.364;16.022;2023-08-20T09:39:48;30.70;99.90
7814;DHT22;3952;48.364;16.022;2023-08-20T09:42:16;30.70;99.90
7814;DHT22;3952;48.364;16.022;2023-08-20T09:44:45;30.70;99.90
7814;DHT22;3952;48.364;16.022;2023-08-20T09:47:14;30.80;99.90
7814;DHT22;3952;48.364;16.022;2023-08-20T09:49:45;30.80;99.90
7814;DHT22;3952;48.364;16.022;2023-08-20T09:52:16;31.00;99.90
7814;DHT22;3952;48.364;16.022;2023-08-20T09:54:52;31.10;99.90
7814;DHT22;3952;48.364;16.022;2023-08-20T09:57:27;31.10;99.90
7814;DHT22;3952;48.364;16.022;2023-08-20T09:59:58;31.30;99.90
7814;DHT22;3952;48.364;16.022;2023-08-20T10:02:26;31.40;99.90
7814;DHT22;3952;48.364;16.022;2023-08-20T10:04:55;31.50;99.90
7814;DHT22;3952;48.364;16.022;2023-08-20T10:07:23;31.60;99.90
7814;DHT22;3952;48.364;16.022;2023-08-20T10:09:52;31.70;99.90
7814;DHT22;3952;48.364;16.022;2023-08-20T10:12:20;31.70;99.90
7814;DHT22;3952;48.364;16.022;2023-08-20T10:14:47;31.80;99.90
7814;DHT22;3952;48.364;16.022;2023-08-20T10:17:14;31.90;99.90
7814;DHT22;3952;48.364;16.022;2023-08-20T10:19:41;31.80;99.90
7814;DHT22;3952;48.364;16.022;2023-08-20T10:22:10;32.10;99.90
7814;DHT22;3952;48.364;16.022;2023-08-20T10:24:46;32.20;99.90
7814;DHT22;3952;48.364;16.022;2023-08-20T10:27:24;32.30;99.90
7814;DHT22;3952;48.364;16.022;2023-08-20T10:29:53;32.40;99.90
7814;DHT22;3952;48.364;16.022;2023-08-20T10:32:21;32.40;99.90
7814;DHT22;3952;48.364;16.022;2023-08-20T10:35:08;32.50;99.90
7814;DHT22;3952;48.364;16.022;2023-08-20T10:37:37;32.60;99.90
7814;DHT22;3952;48.364;16.022;2023-08-20T10:40:07;32.70;99.90
7814;DHT22;3952;48.364;16.022;2023-08-20T10:42:41;32.70;99.90
7814;DHT22;3952;48.364;16.022;2023-08-20T10:45:09;32.80;99.90
7814;DHT22;3952;48.364;16.022;2023-08-20T10:47:42;32.90;99.90
7814;DHT22;3952;48.364;16.022;2023-08-20T10:50:10;32.90;99.90
7814;DHT22;3952;48.364;16.022;2023-08-20T10:52:47;33.00;99.90
7814;DHT22;3952;48.364;16.022;2023-08-20T10:55:15;33.00;99.90
7814;DHT22;3952;48.364;16.022;2023-08-20T10:57:42;33.00;99.90
7814;DHT22;3952;48.364;16.022;2023-08-20T11:00:15;33.00;99.90
7814;DHT22;3952;48.364;16.022;2023-08-20T11:02:43;33.10;99.90
7814;DHT22;3952;48.364;16.022;2023-08-20T11:05:18;33.00;99.90
7814;DHT22;3952;48.364;16.022;2023-08-20T11:07:49;33.10;99.90
7814;DHT22;3952;48.364;16.022;2023-08-20T11:10:16;33.20;99.90
7814;DHT22;3952;48.364;16.022;2023-08-20T11:12:46;33.30;99.90
7814;DHT22;3952;48.364;16.022;2023-08-20T11:15:13;33.40;99.90
7814;DHT22;3952;48.364;16.022;2023-08-20T11:17:41;33.40;99.90
7814;DHT22;3952;48.364;16.022;2023-08-20T11:20:09;33.50;99.90
7814;DHT22;3952;48.364;16.022;2023-08-20T11:22:39;33.50;99.90
7814;DHT22;3952;48.364;16.022;2023-08-20T11:25:10;33.40;99.90
7814;DHT22;3952;48.364;16.022;2023-08-20T11:27:41;33.40;99.90
7814;DHT22;3952;48.364;16.022;2023-08-20T11:30:09;33.20;99.90
7814;DHT22;3952;48.364;16.022;2023-08-20T11:32:38;33.20;99.90
7814;DHT22;3952;48.364;16.022;2023-08-20T11:35:06;33.20;99.90
7814;DHT22;3952;48.364;16.022;2023-08-20T11:37:34;33.20;99.90
7814;DHT22;3952;48.364;16.022;2023-08-20T11:40:02;33.30;99.90
7814;DHT22;3952;48.364;16.022;2023-08-20T11:42:30;33.30;99.90
7814;DHT22;3952;48.364;16.022;2023-08-20T11:44:58;33.40;99.90
7814;DHT22;3952;48.364;16.022;2023-08-20T11:47:25;33.40;99.90
7814;DHT22;3952;48.364;16.022;2023-08-20T11:50:05;33.40;99.90
7814;DHT22;3952;48.364;16.022;2023-08-20T11:52:33;33.40;99.90
7814;DHT22;3952;48.364;16.022;2023-08-20T11:55:00;33.50;99.90
7814;DHT22;3952;48.364;16.022;2023-08-20T11:57:30;33.40;99.90
7814;DHT22;3952;48.364;16.022;2023-08-20T12:00:00;33.40;99.90
7814;DHT22;3952;48.364;16.022;2023-08-20T12:02:30;33.40;99.90
7814;DHT22;3952;48.364;16.022;2023-08-20T12:04:57;33.40;99.90
7814;DHT22;3952;48.364;16.022;2023-08-20T12:07:26;33.50;99.90
7814;DHT22;3952;48.364;16.022;2023-08-20T12:09:53;33.50;99.90
7814;DHT22;3952;48.364;16.022;2023-08-20T12:12:21;33.50;99.90
7814;DHT22;3952;48.364;16.022;2023-08-20T12:14:49;33.40;99.80
7814;DHT22;3952;48.364;16.022;2023-08-20T12:17:18;33.30;99.90
7814;DHT22;3952;48.364;16.022;2023-08-20T12:19:47;33.20;99.90
7814;DHT22;3952;48.364;16.022;2023-08-20T12:22:14;33.20;99.90
7814;DHT22;3952;48.364;16.022;2023-08-20T12:24:41;33.20;99.90
7814;DHT22;3952;48.364;16.022;2023-08-20T12:27:09;33.20;99.90
7814;DHT22;3952;48.364;16.022;2023-08-20T12:29:36;33.20;99.90
7814;DHT22;3952;48.364;16.022;2023-08-20T12:32:05;33.30;99.90
7814;DHT22;3952;48.364;16.022;2023-08-20T12:34:33;33.30;99.90
7814;DHT22;3952;48.364;16.022;2023-08-20T12:37:00;33.30;99.90
7814;DHT22;3952;48.364;16.022;2023-08-20T12:39:28;33.30;99.90
7814;DHT22;3952;48.364;16.022;2023-08-20T12:41:55;33.20;99.90
7814;DHT22;3952;48.364;16.022;2023-08-20T12:44:22;33.20;99.90
7814;DHT22;3952;48.364;16.022;2023-08-20T12:46:49;33.30;99.90
7814;DHT22;3952;48.364;16.022;2023-08-20T12:49:18;33.30;99.90
7814;DHT22;3952;48.364;16.022;2023-08-20T12:51:45;33.30;98.00
7814;DHT22;3952;48.364;16.022;2023-08-20T12:54:13;33.20;99.00
7814;DHT22;3952;48.364;16.022;2023-08-20T12:56:40;33.20;99.90
7814;DHT22;3952;48.364;16.022;2023-08-20T12:59:07;33.20;99.90
7814;DHT22;3952;48.364;16.022;2023-08-20T13:01:35;33.30;99.90
7814;DHT22;3952;48.364;16.022;2023-08-20T13:04:02;33.30;99.90
7814;DHT22;3952;48.364;16.022;2023-08-20T13:06:32;33.30;99.90
7814;DHT22;3952;48.364;16.022;2023-08-20T13:09:00;33.30;99.90
7814;DHT22;3952;48.364;16.022;2023-08-20T13:11:28;33.30;99.90
7814;DHT22;3952;48.364;16.022;2023-08-20T13:13:58;33.30;99.10
7814;DHT22;3952;48.364;16.022;2023-08-20T13:16:26;33.30;99.10
7814;DHT22;3952;48.364;16.022;2023-08-20T13:18:55;33.30;97.80
7814;DHT22;3952;48.364;16.022;2023-08-20T13:21:23;33.30;98.80
7814;DHT22;3952;48.364;16.022;2023-08-20T13:23:51;33.30;99.40
7814;DHT22;3952;48.364;16.022;2023-08-20T13:26:19;33.30;99.90
7814;DHT22;3952;48.364;16.022;2023-08-20T13:28:48;33.30;98.90
7814;DHT22;3952;48.364;16.022;2023-08-20T13:31:15;33.30;98.50
7814;DHT22;3952;48.364;16.022;2023-08-20T13:33:42;33.30;99.80
7814;DHT22;3952;48.364;16.022;2023-08-20T13:36:09;33.30;99.80
7814;DHT22;3952;48.364;16.022;2023-08-20T13:38:37;33.40;99.90
7814;DHT22;3952;48.364;16.022;2023-08-20T13:41:05;33.40;99.90
7814;DHT22;3952;48.364;16.022;2023-08-20T13:43:32;33.40;99.90
7814;DHT22;3952;48.364;16.022;2023-08-20T13:46:00;33.30;99.90
7814;DHT22;3952;48.364;16.022;2023-08-20T13:48:27;33.30;99.90
7814;DHT22;3952;48.364;16.022;2023-08-20T13:50:54;33.20;99.90
7814;DHT22;3952;48.364;16.022;2023-08-20T13:53:21;33.10;99.90
7814;DHT22;3952;48.364;16.022;2023-08-20T13:55:48;33.00;99.00
7814;DHT22;3952;48.364;16.022;2023-08-20T13:58:17;32.90;99.90
7814;DHT22;3952;48.364;16.022;2023-08-20T14:00:44;32.80;99.90
7814;DHT22;3952;48.364;16.022;2023-08-20T14:03:11;32.70;99.90
7814;DHT22;3952;48.364;16.022;2023-08-20T14:05:39;32.60;99.90
7814;DHT22;3952;48.364;16.022;2023-08-20T14:08:06;32.50;99.90
7814;DHT22;3952;48.364;16.022;2023-08-20T14:10:33;32.50;99.90
7814;DHT22;3952;48.364;16.022;2023-08-20T14:13:00;32.40;99.90
7814;DHT22;3952;48.364;16.022;2023-08-20T14:15:30;32.40;99.90
7814;DHT22;3952;48.364;16.022;2023-08-20T14:17:57;32.40;99.90
7814;DHT22;3952;48.364;16.022;2023-08-20T14:20:24;32.40;99.90
7814;DHT22;3952;48.364;16.022;2023-08-20T14:22:51;32.50;99.90
7814;DHT22;3952;48.364;16.022;2023-08-20T14:25:19;32.50;99.90
7814;DHT22;3952;48.364;16.022;2023-08-20T14:27:46;32.60;99.90
7814;DHT22;3952;48.364;16.022;2023-08-20T14:30:13;32.60;99.90
7814;DHT22;3952;48.364;16.022;2023-08-20T14:32:42;32.60;99.80
7814;DHT22;3952;48.364;16.022;2023-08-20T14:35:09;32.60;99.90
7814;DHT22;3952;48.364;16.022;2023-08-20T14:37:37;32.70;99.90
7814;DHT22;3952;48.364;16.022;2023-08-20T14:40:05;32.70;99.90
7814;DHT22;3952;48.364;16.022;2023-08-20T14:42:32;32.70;99.90
7814;DHT22;3952;48.364;16.022;2023-08-20T14:45:00;32.70;99.90
7814;DHT22;3952;48.364;16.022;2023-08-20T14:47:28;32.70;99.90
7814;DHT22;3952;48.364;16.022;2023-08-20T14:49:57;32.80;99.90
7814;DHT22;3952;48.364;16.022;2023-08-20T14:52:24;32.70;99.90
7814;DHT22;3952;48.364;16.022;2023-08-20T14:54:51;32.70;99.90
7814;DHT22;3952;48.364;16.022;2023-08-20T14:57:19;32.70;99.90
7814;DHT22;3952;48.364;16.022;2023-08-20T14:59:46;32.60;99.90
7814;DHT22;3952;48.364;16.022;2023-08-20T15:02:13;32.50;99.90
7814;DHT22;3952;48.364;16.022;2023-08-20T15:04:40;32.40;99.90
7814;DHT22;3952;48.364;16.022;2023-08-20T15:07:09;32.30;99.90
7814;DHT22;3952;48.364;16.022;2023-08-20T15:09:36;32.20;99.90
7814;DHT22;3952;48.364;16.022;2023-08-20T15:12:04;32.20;99.90
7814;DHT22;3952;48.364;16.022;2023-08-20T15:14:31;32.10;99.90
7814;DHT22;3952;48.364;16.022;2023-08-20T15:16:59;32.00;99.90
7814;DHT22;3952;48.364;16.022;2023-08-20T15:19:26;32.00;99.90
7814;DHT22;3952;48.364;16.022;2023-08-20T15:21:53;31.80;99.90
7814;DHT22;3952;48.364;16.022;2023-08-20T15:24:21;31.70;99.90
7814;DHT22;3952;48.364;16.022;2023-08-20T15:26:49;31.70;99.90
7814;DHT22;3952;48.364;16.022;2023-08-20T15:29:16;31.60;99.90
7814;DHT22;3952;48.364;16.022;2023-08-20T15:31:43;31.50;99.90
7814;DHT22;3952;48.364;16.022;2023-08-20T15:34:10;31.50;99.90
7814;DHT22;3952;48.364;16.022;2023-08-20T15:36:37;31.50;99.90
7814;DHT22;3952;48.364;16.022;2023-08-20T15:39:05;31.50;99.90
7814;DHT22;3952;48.364;16.022;2023-08-20T15:41:33;31.50;99.90
7814;DHT22;3952;48.364;16.022;2023-08-20T15:44:00;31.50;99.90
7814;DHT22;3952;48.364;16.022;2023-08-20T15:46:28;31.50;99.90
7814;DHT22;3952;48.364;16.022;2023-08-20T15:48:55;31.50;99.90
7814;DHT22;3952;48.364;16.022;2023-08-20T15:51:22;31.50;99.90